Flight Track Log - Related Links

Times and Time Zones

All times are in EDT time to prevent confusion due to time zone crossing. See the N6045S flight status page for this flight to view local times or setup timezone preferences in your user account.

Time Position Orientation Groundspeed Altitude Reporting Facility
EDT Latitude Longitude Course Direction KTS MPH feet Rate Location/Type
Fri 08:24:16 AM 44.3717 -73.1631 200° South 145 167 5,600  Level Boston Center
Fri 08:25:28 AM 44.3297 -73.1800 196° South 145 167 7,500 1,636 Climbing Boston Center
Fri 08:26:28 AM 44.2922 -73.1942 195° South 150 173 9,200 1,600 Climbing Boston Center
Fri 08:27:28 AM 44.2547 -73.2025 189° South 150 173 10,700 1,550 Climbing Boston Center
Fri 08:28:00 AM 44.1402 -73.2667 180° South  Level FlightAware Approximate
Fri 08:28:28 AM 44.2108 -73.2192 195° South 150 173 12,300  Level Boston Center
Fri 08:29:00 AM 44.0869 -73.2899 200° South  Level FlightAware Approximate
Fri 08:29:28 AM 44.1689 -73.2361 196° South 155 178 13,700  Level Boston Center
Fri 08:30:28 AM 44.1272 -73.2528 196° South 161 185 15,200 1,300 Climbing Boston Center
Fri 08:31:28 AM 44.0792 -73.2722 196° South 170 196 16,300 600 Climbing Boston Center
Fri 08:32:28 AM 44.0289 -73.2978 200° South 190 219 16,400 50 Climbing Boston Center
Fri 08:33:28 AM 43.9703 -73.3286 201° Southwest 214 246 16,400  Level Boston Center
Fri 08:34:28 AM 43.9014 -73.3592 198° South 233 268 16,400  Level Boston Center
Fri 08:35:40 AM 43.8261 -73.3925 198° South 238 274 16,400  Level Boston Center
Fri 08:36:40 AM 43.7633 -73.4233 200° South 238 274 16,400  Level Boston Center
Fri 08:37:40 AM 43.7047 -73.4511 199° South 238 274 16,400  Level Boston Center
Fri 08:38:40 AM 43.6608 -73.4703 198° South 238 274 16,400  Level Boston Center
Fri 08:39:40 AM 43.5856 -73.5036 198° South 243 280 16,400  Level Boston Center
Fri 08:40:40 AM 43.5228 -73.5311 198° South 248 285 16,400  Level Boston Center
Fri 08:41:40 AM 43.4556 -73.5611 198° South 248 285 16,400  Level Boston Center
Fri 08:42:40 AM 43.3825 -73.5942 198° South 248 285 16,400  Level Boston Center
Fri 08:43:40 AM 43.3156 -73.6242 198° South 253 291 16,400  Level Boston Center
Fri 08:44:40 AM 43.2506 -73.6544 199° South 247 284 16,400  Level Boston Center
Fri 08:45:40 AM 43.1856 -73.6817 197° South 247 284 16,400 50 Level Boston Center
Fri 08:46:40 AM 43.1228 -73.7117 199° South 247 284 16,500 50 Climbing Boston Center
Fri 08:47:40 AM 43.0600 -73.7417 199° South 247 284 16,500  Level Boston Center
Fri 08:48:40 AM 42.9969 -73.7686 197° South 247 284 16,500  Level Boston Center
Fri 08:49:40 AM 42.9319 -73.7983 199° South 247 284 16,500  Level Boston Center
Fri 08:50:40 AM 42.8672 -73.8253 197° South 247 284 16,500  Level Boston Center
Fri 08:51:40 AM 42.8022 -73.8606 202° Southwest 247 284 16,500  Level Boston Center
Fri 08:52:40 AM 42.7372 -73.8875 197° South 247 284 16,500  Level Boston Center
Fri 08:53:40 AM 42.6700 -73.9169 198° South 247 284 16,500  Level Boston Center
Fri 08:54:40 AM 42.6092 -73.9436 198° South 247 284 16,500  Level Boston Center
Fri 08:55:40 AM 42.5444 -73.9703 197° South 247 284 16,500  Level Boston Center
Fri 08:56:40 AM 42.4878 -73.9942 197° South 247 284 16,500  Level Boston Center
Fri 08:57:40 AM 42.4144 -74.0261 198° South 252 290 16,500  Level Boston Center
Fri 08:58:40 AM 42.3556 -74.0528 199° South 246 283 16,500  Level Boston Center
Fri 08:59:40 AM 42.2842 -74.0847 198° South 252 290 16,500  Level Boston Center
Fri 09:00:40 AM 42.2172 -74.1164 199° South 252 290 16,500  Level Boston Center
Fri 09:01:40 AM 42.1522 -74.1428 197° South 247 284 16,500  Level Boston Center
Fri 09:02:40 AM 42.0869 -74.1717 198° South 247 284 16,500 -50 Level Boston Center
Fri 09:03:40 AM 42.0219 -74.1981 197° South 247 284 16,400 -50 Descending Boston Center
Fri 09:04:40 AM 41.9550 -74.2267 198° South 247 284 16,400  Level Boston Center
Fri 09:05:40 AM 41.8919 -74.2556 199° South 247 284 16,400  Level Boston Center
Fri 09:06:40 AM 41.8247 -74.2844 198° South 254 292 16,400  Level Boston Center
Fri 09:07:40 AM 41.7617 -74.3103 197° South 254 292 16,400  Level Boston Center
Fri 09:08:40 AM 41.6925 -74.3389 197° South 249 287 16,400  Level Boston Center
Fri 09:09:40 AM 41.6275 -74.3675 198° South 249 287 16,400  Level Boston Center
Fri 09:10:40 AM 41.5619 -74.3947 197° South 250 288 16,400  Level New York Center
Fri 09:11:40 AM 41.4944 -74.4242 198° South 250 288 16,400 50 Level New York Center
Fri 09:12:41 AM 41.4292 -74.4511 197° South 250 288 16,500 49 Climbing New York Center
Fri 09:13:42 AM 41.3617 -74.4806 198° South 250 288 16,500  Level New York Center
Fri 09:14:23 AM 41.3167 -74.5000 198° South 256 295 16,500  Level New York TRACON
Fri 09:15:23 AM 41.2500 -74.5333 201° Southwest 254 292 16,500  Level New York TRACON
Fri 09:16:23 AM 41.1833 -74.5667 201° Southwest 252 290 16,500  Level New York TRACON
Fri 09:17:29 AM 41.1000 -74.5833 189° South 254 292 16,500  Level New York TRACON
Fri 09:18:23 AM 41.0500 -74.6167 207° Southwest 252 290 16,500  Level New York TRACON
Fri 09:18:42 AM 41.0239 -74.6214 188° South 250 288 16,500  Level New York Center
Fri 09:19:40 AM 40.9561 -74.6506 198° South 250 288 16,500  Level New York Center
Fri 09:20:40 AM 40.8906 -74.6797 199° South 250 288 16,500  Level New York Center
Fri 09:21:40 AM 40.8231 -74.7061 196° South 250 288 16,500 -149 Level New York Center
Fri 09:22:41 AM 40.7556 -74.7350 198° South 250 288 16,200 -738 Descending New York Center
Fri 09:23:42 AM 40.6919 -74.7614 197° South 255 293 15,000 -1,311 Descending New York Center
Fri 09:24:40 AM 40.6181 -74.7900 196° South 255 293 13,600 -1,366 Descending New York Center
Fri 09:25:23 AM 40.5667 -74.8167 202° Southwest 251 289 12,700 -1,456 Descending New York TRACON
Fri 09:26:23 AM 40.5000 -74.8333 191° South 257 296 11,100 -1,450 Descending New York TRACON
Fri 09:27:23 AM 40.4333 -74.8667 201° Southwest 253 291 9,800 -1,300 Descending New York TRACON
Fri 09:28:23 AM 40.3667 -74.9000 201° Southwest 237 273 8,500 -1,421 Descending New York TRACON
Fri 09:29:17 AM 40.3167 -74.9167 194° South 221 254 7,100 -1,010 Descending New York TRACON
Fri 09:31:51 AM 40.2000 -74.9833 204° Southwest 213 245 5,000 -1,064 Descending Philadelphia TRACON
Fri 09:32:57 AM 40.1333 -75.0000 191° South 221 254 3,200 -1,263 Descending Philadelphia TRACON
Fri 09:33:45 AM 40.1000 -74.9667 143° Southeast 178 205 2,600 -667 Descending Philadelphia TRACON
Fri 09:34:45 AM 40.0667 -74.9500 159° South 148 170 2,000 -818 Descending Philadelphia TRACON
Fri 09:35:57 AM 40.0500 -74.9833 237° Southwest 106 122 800 -1,000 Descending Philadelphia TRACON
Fri 09:37:00 AM 40.0667 -75.0000 270° West  Level FlightAware Approximate
Fri 09:44:00 AM 40.0819 -75.0106 270° West  Level Estimated
Fri 09:45:00 AM 40.0819 -75.0106 270° West  Level Estimated

Login

Don't have an account? Register now (free) for customized features, flight alerts, and more!